createdAt,value
2023-03-31T00:00:18.750Z,51.90
2023-03-31T00:02:46.235Z,60.63
2023-03-31T00:05:18.081Z,74.85
2023-03-31T00:07:46.197Z,59.67
2023-03-31T00:10:18.236Z,67.65
2023-03-31T00:12:46.061Z,59.35
2023-03-31T00:15:13.363Z,53.42
2023-03-31T00:17:40.421Z,55.42
2023-03-31T00:20:12.502Z,52.70
2023-03-31T00:22:42.411Z,52.85
2023-03-31T00:25:14.169Z,54.92
2023-03-31T00:27:45.235Z,58.78
2023-03-31T00:30:16.129Z,54.97
2023-03-31T00:32:43.165Z,51.78
2023-03-31T00:35:10.519Z,54.30
2023-03-31T00:37:37.834Z,63.67
2023-03-31T00:40:09.363Z,62.15
2023-03-31T00:42:43.752Z,56.63
2023-03-31T00:45:14.042Z,58.00
2023-03-31T00:47:48.924Z,51.67
2023-03-31T00:50:23.213Z,65.53
2023-03-31T00:52:56.295Z,60.35
2023-03-31T00:55:29.679Z,55.78
2023-03-31T00:57:57.994Z,54.42
2023-03-31T01:00:24.970Z,58.60
2023-03-31T01:02:59.490Z,63.65
2023-03-31T01:05:45.928Z,54.03
2023-03-31T01:08:14.892Z,61.03
2023-03-31T01:10:46.504Z,51.28
2023-03-31T01:13:15.052Z,52.60
2023-03-31T01:15:43.017Z,52.72
2023-03-31T01:18:11.470Z,53.55
2023-03-31T01:20:52.922Z,52.90
2023-03-31T01:23:35.575Z,52.28
2023-03-31T01:26:18.399Z,57.55
2023-03-31T01:29:00.561Z,53.78
2023-03-31T01:31:55.335Z,50.95
2023-03-31T01:34:25.067Z,54.38
2023-03-31T01:37:07.226Z,55.67
2023-03-31T01:40:09.777Z,53.83
2023-03-31T01:42:49.700Z,60.50
2023-03-31T01:45:33.271Z,53.33
2023-03-31T01:48:26.046Z,56.70
2023-03-31T01:51:03.280Z,58.28
2023-03-31T01:53:51.889Z,54.65
2023-03-31T01:56:27.122Z,56.47
2023-03-31T01:58:59.351Z,59.08
2023-03-31T02:01:43.558Z,54.78
2023-03-31T02:04:36.709Z,66.53
2023-03-31T02:07:12.136Z,51.95
2023-03-31T02:09:43.580Z,62.58
2023-03-31T02:12:12.298Z,53.60
2023-03-31T02:14:46.867Z,53.47
2023-03-31T02:17:21.469Z,58.38
2023-03-31T02:19:52.638Z,61.72
2023-03-31T02:22:22.532Z,55.67
2023-03-31T02:24:51.573Z,51.22
2023-03-31T02:27:31.373Z,57.03
2023-03-31T02:29:59.624Z,54.90
2023-03-31T02:32:35.530Z,54.75
2023-03-31T02:35:03.386Z,54.10
2023-03-31T02:37:30.856Z,53.47
2023-03-31T02:40:01.057Z,54.58
2023-03-31T02:42:28.092Z,51.85
2023-03-31T02:44:55.081Z,50.25
2023-03-31T02:47:22.848Z,54.25
2023-03-31T02:49:53.703Z,50.22
2023-03-31T02:52:52.061Z,52.28
2023-03-31T02:55:48.840Z,53.42
2023-03-31T02:58:28.780Z,53.65
2023-03-31T03:01:20.639Z,59.97
2023-03-31T03:04:25.749Z,57.63
2023-03-31T03:07:17.647Z,52.05
2023-03-31T03:10:07.029Z,54.13
2023-03-31T03:13:04.081Z,57.42
2023-03-31T03:15:39.415Z,49.95
2023-03-31T03:18:06.989Z,51.05
2023-03-31T03:20:34.320Z,53.10
2023-03-31T03:23:01.462Z,53.97
2023-03-31T03:25:30.329Z,61.60
2023-03-31T03:27:57.288Z,57.67
2023-03-31T03:30:24.261Z,56.67
2023-03-31T03:32:51.327Z,64.43
2023-03-31T03:35:18.354Z,64.72
2023-03-31T03:37:45.472Z,54.13
2023-03-31T03:40:12.685Z,60.80
2023-03-31T03:42:39.667Z,55.50
2023-03-31T03:45:07.705Z,59.28
2023-03-31T03:47:36.216Z,57.75
2023-03-31T03:50:04.941Z,62.38
2023-03-31T03:52:32.038Z,53.47
2023-03-31T03:54:58.993Z,60.67
2023-03-31T03:57:26.426Z,61.78
2023-03-31T03:59:53.496Z,58.35
2023-03-31T04:02:20.572Z,53.33
2023-03-31T04:04:47.942Z,61.47
2023-03-31T04:07:15.595Z,57.38
2023-03-31T04:09:42.476Z,56.85
2023-03-31T04:12:09.384Z,61.33
2023-03-31T04:14:36.334Z,62.58
2023-03-31T04:17:03.416Z,55.42
2023-03-31T04:19:30.360Z,63.15
2023-03-31T04:22:03.042Z,59.10
2023-03-31T04:24:33.577Z,66.00
2023-03-31T04:27:03.183Z,59.83
2023-03-31T04:29:33.768Z,61.58
2023-03-31T04:32:01.303Z,59.58
2023-03-31T04:34:35.371Z,64.82
2023-03-31T04:37:03.565Z,58.17
2023-03-31T04:39:30.963Z,63.70
2023-03-31T04:41:58.825Z,63.58
2023-03-31T04:44:26.044Z,65.40
2023-03-31T04:46:53.765Z,66.10
2023-03-31T04:49:20.815Z,63.47
2023-03-31T04:51:47.803Z,71.57
2023-03-31T04:54:14.801Z,65.75
2023-03-31T04:56:41.708Z,63.30
2023-03-31T04:59:08.688Z,61.58
2023-03-31T05:01:36.554Z,69.32
2023-03-31T05:04:06.706Z,65.93
2023-03-31T05:06:33.837Z,55.33
2023-03-31T05:09:00.916Z,63.47
2023-03-31T05:11:29.164Z,55.33
2023-03-31T05:13:56.433Z,63.15
2023-03-31T05:16:23.452Z,61.85
2023-03-31T05:18:50.422Z,59.13
2023-03-31T05:21:20.136Z,62.13
2023-03-31T05:23:48.014Z,62.60
2023-03-31T05:26:15.466Z,65.45
2023-03-31T05:28:42.954Z,66.93
2023-03-31T05:31:11.392Z,69.63
2023-03-31T05:33:41.347Z,67.25
2023-03-31T05:36:13.750Z,63.15
2023-03-31T05:38:41.199Z,64.97
2023-03-31T05:41:09.692Z,73.10
2023-03-31T05:43:38.178Z,71.88
2023-03-31T05:46:06.654Z,69.10
2023-03-31T05:48:34.258Z,70.95
2023-03-31T05:51:01.953Z,67.82
2023-03-31T05:53:28.998Z,64.72
2023-03-31T05:56:06.365Z,71.82
2023-03-31T05:58:37.291Z,67.95
2023-03-31T06:01:09.033Z,71.90
2023-03-31T06:03:38.758Z,71.30
2023-03-31T06:06:06.337Z,71.85
2023-03-31T06:08:33.382Z,62.00
2023-03-31T06:11:01.102Z,71.57
2023-03-31T06:13:28.021Z,65.90
2023-03-31T06:15:59.643Z,65.43
2023-03-31T06:18:28.855Z,66.95
2023-03-31T06:20:56.648Z,74.90
2023-03-31T06:23:24.657Z,72.40
2023-03-31T06:25:52.610Z,77.57
2023-03-31T06:28:21.259Z,79.25
2023-03-31T06:30:48.272Z,66.18
2023-03-31T06:33:16.473Z,70.18
2023-03-31T06:35:43.535Z,70.28
2023-03-31T06:38:10.850Z,68.63
2023-03-31T06:40:37.851Z,70.10
2023-03-31T06:43:04.836Z,73.82
2023-03-31T06:45:31.930Z,76.32
2023-03-31T06:47:58.992Z,68.75
2023-03-31T06:50:26.352Z,67.78
2023-03-31T06:52:55.200Z,78.13
2023-03-31T06:55:22.244Z,75.05
2023-03-31T06:57:49.164Z,69.82
2023-03-31T07:00:17.287Z,63.75
2023-03-31T07:02:44.435Z,68.53
2023-03-31T07:05:11.635Z,69.07
2023-03-31T07:07:38.738Z,65.28
2023-03-31T07:10:06.264Z,63.55
2023-03-31T07:12:34.138Z,73.97
2023-03-31T07:15:01.166Z,70.68
2023-03-31T07:17:28.270Z,63.92
2023-03-31T07:19:55.535Z,76.18
2023-03-31T07:22:22.824Z,66.68
2023-03-31T07:24:49.761Z,66.93
2023-03-31T07:27:16.849Z,64.00
2023-03-31T07:29:43.895Z,61.75
2023-03-31T07:32:11.003Z,73.38
2023-03-31T07:34:39.099Z,61.20
2023-03-31T07:37:06.265Z,65.22
2023-03-31T07:39:33.292Z,70.57
2023-03-31T07:42:01.308Z,68.75
2023-03-31T07:44:28.262Z,63.83
2023-03-31T07:46:55.785Z,67.43
2023-03-31T07:49:22.696Z,65.32
2023-03-31T07:51:49.638Z,60.05
2023-03-31T07:54:16.570Z,68.90
2023-03-31T07:56:43.573Z,59.45
2023-03-31T07:59:10.887Z,64.50
2023-03-31T08:01:37.903Z,58.20
2023-03-31T08:04:05.182Z,61.03
2023-03-31T08:06:33.180Z,64.75
2023-03-31T08:09:00.417Z,69.60
2023-03-31T08:11:27.555Z,75.18
2023-03-31T08:13:54.539Z,73.13
2023-03-31T08:16:21.664Z,66.85
2023-03-31T08:18:48.687Z,57.42
2023-03-31T08:21:15.721Z,63.42
2023-03-31T08:23:42.817Z,60.03
2023-03-31T08:26:21.927Z,66.75
2023-03-31T08:28:49.397Z,63.75
2023-03-31T08:31:18.677Z,60.22
2023-03-31T08:33:46.775Z,61.97
2023-03-31T08:36:14.612Z,62.53
2023-03-31T08:38:46.249Z,56.33
2023-03-31T08:41:32.787Z,67.25
2023-03-31T08:44:02.893Z,63.30
2023-03-31T08:46:33.504Z,60.35
2023-03-31T08:49:01.343Z,61.05
2023-03-31T08:51:29.579Z,58.47
2023-03-31T08:54:25.741Z,56.50
2023-03-31T08:56:53.227Z,73.57
2023-03-31T08:59:33.161Z,62.60
2023-03-31T09:02:25.177Z,62.63
2023-03-31T09:05:16.453Z,60.60
2023-03-31T09:08:17.957Z,63.22
2023-03-31T09:11:04.747Z,59.90
2023-03-31T09:13:54.778Z,61.42
2023-03-31T09:16:27.441Z,57.70
2023-03-31T09:19:00.442Z,52.92
2023-03-31T09:21:40.906Z,58.80
2023-03-31T09:24:23.698Z,59.90
2023-03-31T09:26:58.585Z,59.58
2023-03-31T09:29:45.115Z,53.58
2023-03-31T09:32:15.346Z,62.85
2023-03-31T09:34:44.808Z,64.53
2023-03-31T09:37:12.583Z,64.03
2023-03-31T09:39:40.712Z,61.35
2023-03-31T09:42:10.627Z,74.25
2023-03-31T09:44:44.320Z,67.82
2023-03-31T09:47:18.870Z,67.10
2023-03-31T09:49:54.061Z,63.08
2023-03-31T09:52:33.359Z,61.60
2023-03-31T09:55:07.073Z,61.78
2023-03-31T10:00:16.572Z,59.72
2023-03-31T10:02:51.518Z,60.80
2023-03-31T10:05:51.906Z,59.30
2023-03-31T10:08:33.917Z,52.72
2023-03-31T10:11:03.973Z,59.50
2023-03-31T10:13:42.033Z,57.08
2023-03-31T10:16:14.602Z,53.17
2023-03-31T10:18:44.085Z,54.03
2023-03-31T10:21:24.106Z,60.47
2023-03-31T10:23:52.973Z,52.95
2023-03-31T10:26:40.020Z,58.35
2023-03-31T10:29:18.723Z,56.28
2023-03-31T10:31:45.879Z,61.47
2023-03-31T10:34:17.218Z,57.80
2023-03-31T10:36:48.315Z,61.25
2023-03-31T10:39:17.224Z,59.25
2023-03-31T10:41:49.611Z,59.65
2023-03-31T10:44:46.188Z,63.45
2023-03-31T10:47:13.999Z,49.10
2023-03-31T10:49:42.924Z,59.63
2023-03-31T10:52:25.842Z,51.42
2023-03-31T10:54:59.473Z,59.10
2023-03-31T10:57:56.795Z,51.80
2023-03-31T11:00:37.949Z,57.88
2023-03-31T11:03:31.116Z,47.20
2023-03-31T11:06:13.359Z,53.45
2023-03-31T11:09:22.225Z,62.53
2023-03-31T11:11:56.082Z,53.60
2023-03-31T11:14:40.321Z,51.65
2023-03-31T11:17:21.228Z,55.33
2023-03-31T11:19:55.178Z,55.40
2023-03-31T11:22:40.779Z,55.53
2023-03-31T11:25:30.626Z,49.45
2023-03-31T11:28:13.740Z,49.90
2023-03-31T11:30:58.079Z,47.00
2023-03-31T11:33:54.134Z,53.25
2023-03-31T11:36:41.627Z,48.83
2023-03-31T11:44:13.055Z,46.38
2023-03-31T11:47:02.464Z,36.17
2023-03-31T11:49:39.078Z,28.80
2023-03-31T12:30:06.338Z,39.97
2023-03-31T12:32:38.354Z,37.15
2023-03-31T12:35:16.741Z,34.45
2023-03-31T12:37:52.497Z,37.63
2023-03-31T12:40:37.144Z,39.45
2023-03-31T12:43:06.770Z,46.20
2023-03-31T12:45:46.236Z,36.35
2023-03-31T12:48:42.152Z,32.55
2023-03-31T12:51:27.769Z,48.03
2023-03-31T12:54:31.875Z,33.53
2023-03-31T12:57:01.760Z,29.35
2023-03-31T12:59:38.581Z,29.58
2023-03-31T13:02:21.661Z,27.90
2023-03-31T13:04:50.543Z,28.07
2023-03-31T13:07:28.469Z,32.58
2023-03-31T13:10:21.700Z,30.35
2023-03-31T13:13:16.226Z,31.38
2023-03-31T13:15:57.742Z,28.73
2023-03-31T13:18:25.501Z,33.03
2023-03-31T13:23:37.432Z,24.10
2023-03-31T13:26:04.789Z,24.40
2023-03-31T13:28:42.658Z,30.15
2023-03-31T13:31:13.869Z,26.25
2023-03-31T13:33:43.942Z,21.80
2023-03-31T13:36:32.760Z,23.58
2023-03-31T13:39:30.311Z,23.13
2023-03-31T13:42:35.380Z,21.02
2023-03-31T13:45:23.449Z,21.92
2023-03-31T13:47:58.762Z,22.55
2023-03-31T13:51:00.779Z,32.22
2023-03-31T13:53:41.985Z,31.00
2023-03-31T13:56:27.011Z,27.35
2023-03-31T13:59:06.174Z,27.60
2023-03-31T14:02:12.180Z,27.80
2023-03-31T14:05:03.887Z,27.25
2023-03-31T14:07:58.776Z,25.83
2023-03-31T14:10:35.089Z,26.98
2023-03-31T14:13:09.482Z,31.90
2023-03-31T14:15:52.183Z,25.35
2023-03-31T14:18:28.235Z,25.77
2023-03-31T14:21:04.060Z,26.30
2023-03-31T14:23:53.527Z,27.92
2023-03-31T14:26:46.800Z,28.90
2023-03-31T14:29:41.794Z,32.05
2023-03-31T14:32:36.980Z,41.83
2023-03-31T14:35:23.838Z,35.22
2023-03-31T14:37:51.219Z,38.38
2023-03-31T14:40:18.936Z,40.42
2023-03-31T14:42:49.780Z,42.33
2023-03-31T14:45:25.095Z,40.28
2023-03-31T14:48:02.769Z,38.67
2023-03-31T14:50:36.496Z,42.75
2023-03-31T14:53:04.856Z,38.10
2023-03-31T14:55:49.763Z,47.80
2023-03-31T14:58:35.011Z,42.38
2023-03-31T15:01:07.042Z,37.70
2023-03-31T15:03:37.585Z,44.38
2023-03-31T15:06:05.812Z,41.72
2023-03-31T15:08:34.821Z,41.15
2023-03-31T15:11:12.886Z,38.58
2023-03-31T15:13:56.703Z,34.58
2023-03-31T15:16:43.192Z,37.03
2023-03-31T15:19:22.819Z,35.20
2023-03-31T15:22:01.748Z,42.13
2023-03-31T15:24:29.610Z,37.67
2023-03-31T15:27:23.436Z,42.30
2023-03-31T15:29:56.210Z,38.67
2023-03-31T15:32:27.598Z,48.63
2023-03-31T15:34:57.265Z,36.72
2023-03-31T15:37:28.556Z,41.72
2023-03-31T15:39:58.283Z,38.65
2023-03-31T15:42:26.728Z,41.63
2023-03-31T15:45:17.817Z,42.38
2023-03-31T15:47:54.936Z,39.20
2023-03-31T15:50:23.851Z,35.72
2023-03-31T15:52:54.697Z,40.17
2023-03-31T15:55:39.406Z,41.50
2023-03-31T15:58:08.749Z,37.45
2023-03-31T16:00:47.699Z,39.78
2023-03-31T16:03:24.253Z,35.88
2023-03-31T16:05:56.520Z,36.28
2023-03-31T16:08:38.078Z,42.83
2023-03-31T16:11:13.765Z,39.10
2023-03-31T16:13:44.351Z,37.65
2023-03-31T16:16:15.030Z,39.55
2023-03-31T16:19:02.461Z,40.65
2023-03-31T16:21:37.261Z,40.65
2023-03-31T16:24:04.798Z,39.53
2023-03-31T16:26:32.547Z,33.13
2023-03-31T16:29:01.085Z,37.83
2023-03-31T16:31:40.418Z,38.22
2023-03-31T16:34:11.438Z,34.40
2023-03-31T16:36:38.627Z,40.05
2023-03-31T16:39:06.713Z,41.60
2023-03-31T16:41:34.809Z,38.55
2023-03-31T16:44:03.097Z,38.03
2023-03-31T16:46:30.151Z,36.83
2023-03-31T16:48:57.212Z,36.33
2023-03-31T16:51:24.736Z,36.53
2023-03-31T16:53:51.637Z,45.88
2023-03-31T16:56:19.103Z,42.53
2023-03-31T16:58:46.089Z,39.92
2023-03-31T17:01:13.116Z,48.70
2023-03-31T17:03:42.003Z,45.97
2023-03-31T17:06:13.331Z,43.05
2023-03-31T17:08:40.913Z,38.78
2023-03-31T17:11:12.279Z,41.90
2023-03-31T17:13:41.751Z,46.85
2023-03-31T17:16:20.274Z,47.95
2023-03-31T17:18:54.578Z,45.20
2023-03-31T17:21:21.972Z,32.97
2023-03-31T17:23:49.867Z,34.75
2023-03-31T17:26:18.499Z,38.28
2023-03-31T17:28:45.501Z,32.38
2023-03-31T17:31:16.542Z,38.53
2023-03-31T17:33:43.816Z,41.35
2023-03-31T17:36:11.297Z,41.30
2023-03-31T17:38:39.806Z,35.22
2023-03-31T17:41:09.481Z,38.55
2023-03-31T17:43:38.025Z,35.53
2023-03-31T17:46:09.916Z,41.40
2023-03-31T17:48:39.191Z,43.15
2023-03-31T17:51:13.786Z,38.50
2023-03-31T17:53:47.751Z,39.63
2023-03-31T17:56:15.658Z,52.92
2023-03-31T17:58:42.981Z,45.20
2023-03-31T18:01:11.799Z,53.40
2023-03-31T18:03:39.197Z,49.90
2023-03-31T18:06:08.508Z,44.60
2023-03-31T18:08:36.236Z,38.95
2023-03-31T18:11:05.185Z,40.85
2023-03-31T18:13:33.379Z,46.28
2023-03-31T18:16:00.560Z,37.85
2023-03-31T18:18:29.073Z,40.78
2023-03-31T18:20:56.726Z,47.40
2023-03-31T18:23:23.989Z,38.40
2023-03-31T18:25:51.777Z,37.22
2023-03-31T18:28:19.047Z,38.58
2023-03-31T18:30:47.269Z,38.70
2023-03-31T18:33:14.596Z,33.88
2023-03-31T18:35:42.167Z,42.65
2023-03-31T18:38:09.819Z,39.55
2023-03-31T18:40:36.958Z,37.15
2023-03-31T18:43:04.251Z,36.92
2023-03-31T18:45:31.303Z,43.22
2023-03-31T18:47:58.739Z,40.80
2023-03-31T18:50:26.019Z,35.97
2023-03-31T18:52:54.585Z,39.83
2023-03-31T18:55:22.383Z,44.95
2023-03-31T18:57:50.331Z,38.35
2023-03-31T19:00:17.797Z,36.88
2023-03-31T19:02:45.164Z,44.72
2023-03-31T19:05:12.300Z,41.63
2023-03-31T19:07:40.295Z,52.83
2023-03-31T19:10:08.192Z,43.45
2023-03-31T19:12:35.132Z,40.50
2023-03-31T19:15:03.647Z,41.60
2023-03-31T19:17:30.864Z,35.42
2023-03-31T19:19:57.907Z,40.00
2023-03-31T19:22:27.623Z,38.42
2023-03-31T19:24:54.654Z,44.53
2023-03-31T19:27:21.962Z,39.20
2023-03-31T19:29:49.088Z,43.78
2023-03-31T19:32:16.852Z,40.00
2023-03-31T19:34:45.759Z,40.60
2023-03-31T19:37:13.684Z,42.42
2023-03-31T19:39:40.615Z,40.50
2023-03-31T19:42:07.516Z,41.70
2023-03-31T19:44:34.449Z,37.15
2023-03-31T19:47:01.426Z,36.25
2023-03-31T19:49:28.340Z,36.13
2023-03-31T19:51:56.514Z,36.65
2023-03-31T19:54:23.563Z,34.92
2023-03-31T19:56:50.519Z,37.03
2023-03-31T19:59:17.597Z,35.70
2023-03-31T20:01:44.669Z,33.15
2023-03-31T20:04:12.320Z,36.45
2023-03-31T20:06:39.382Z,39.60
2023-03-31T20:09:06.470Z,39.97
2023-03-31T20:11:33.685Z,36.15
2023-03-31T20:14:01.767Z,33.35
2023-03-31T20:16:30.720Z,40.05
2023-03-31T20:19:01.333Z,37.13
2023-03-31T20:21:30.121Z,40.50
2023-03-31T20:23:58.908Z,42.55
2023-03-31T20:26:29.567Z,35.63
2023-03-31T20:28:58.170Z,40.47
2023-03-31T20:31:31.422Z,42.30
2023-03-31T20:33:58.730Z,36.10
2023-03-31T20:36:29.731Z,37.03
2023-03-31T20:38:57.210Z,36.17
2023-03-31T20:41:27.463Z,36.78
2023-03-31T20:43:55.563Z,36.05
2023-03-31T20:46:23.133Z,35.95
2023-03-31T20:48:53.165Z,34.92
2023-03-31T20:51:24.670Z,35.67
2023-03-31T20:53:53.124Z,36.65
2023-03-31T20:56:25.965Z,40.85
2023-03-31T20:58:58.900Z,35.03
2023-03-31T21:01:32.647Z,27.70
2023-03-31T21:04:05.032Z,39.85
2023-03-31T21:06:46.570Z,35.10
2023-03-31T21:09:14.920Z,31.33
2023-03-31T21:11:42.246Z,35.95
2023-03-31T21:14:16.497Z,32.88
2023-03-31T21:16:43.744Z,34.60
2023-03-31T21:19:11.369Z,35.88
2023-03-31T21:21:41.233Z,33.65
2023-03-31T21:24:11.329Z,36.38
2023-03-31T21:26:39.110Z,26.80
2023-03-31T21:29:06.257Z,33.17
2023-03-31T21:31:33.316Z,32.40
2023-03-31T21:34:02.591Z,32.58
2023-03-31T21:36:29.657Z,36.42
2023-03-31T21:38:57.485Z,27.25
2023-03-31T21:41:30.109Z,28.50
2023-03-31T21:44:00.548Z,28.05
2023-03-31T21:46:31.845Z,34.05
2023-03-31T21:48:59.099Z,30.17
2023-03-31T21:51:26.951Z,27.88
2023-03-31T21:53:55.690Z,29.67
2023-03-31T21:56:24.438Z,24.73
2023-03-31T21:58:51.718Z,34.33
2023-03-31T22:01:18.887Z,30.83
2023-03-31T22:03:46.380Z,26.98
2023-03-31T22:06:13.350Z,31.50
2023-03-31T22:08:40.748Z,26.92
2023-03-31T22:11:10.214Z,27.05
2023-03-31T22:13:37.908Z,29.02
2023-03-31T22:16:06.315Z,32.05
2023-03-31T22:18:33.642Z,33.88
2023-03-31T22:21:02.497Z,36.08
2023-03-31T22:23:29.765Z,31.00
2023-03-31T22:25:56.701Z,36.28
2023-03-31T22:28:23.652Z,31.27
2023-03-31T22:30:50.584Z,34.60
2023-03-31T22:33:17.498Z,45.53
2023-03-31T22:35:44.495Z,32.05
2023-03-31T22:38:13.955Z,31.45
2023-03-31T22:40:41.088Z,30.02
2023-03-31T22:43:08.570Z,31.90
2023-03-31T22:45:37.766Z,42.60
2023-03-31T22:48:05.587Z,32.08
2023-03-31T22:50:32.803Z,35.15
2023-03-31T22:52:59.752Z,31.00
2023-03-31T22:55:26.768Z,33.47
2023-03-31T22:57:53.677Z,33.33
2023-03-31T23:00:20.877Z,39.97
2023-03-31T23:02:47.829Z,36.35
2023-03-31T23:05:14.892Z,43.55
2023-03-31T23:07:42.421Z,38.40
2023-03-31T23:10:09.614Z,32.83
2023-03-31T23:12:36.920Z,39.55
2023-03-31T23:15:04.824Z,29.92
2023-03-31T23:17:31.972Z,31.38
2023-03-31T23:19:58.993Z,33.75
2023-03-31T23:22:26.495Z,38.13
2023-03-31T23:24:53.718Z,38.00
2023-03-31T23:27:20.906Z,33.53
2023-03-31T23:29:47.841Z,32.53
2023-03-31T23:32:14.998Z,28.08
2023-03-31T23:34:42.424Z,34.22
2023-03-31T23:37:11.350Z,30.90
2023-03-31T23:39:38.993Z,29.52
2023-03-31T23:42:07.333Z,29.67
2023-03-31T23:44:37.817Z,34.13
2023-03-31T23:47:05.603Z,30.48
2023-03-31T23:49:32.612Z,29.20
2023-03-31T23:51:59.574Z,29.25
2023-03-31T23:54:26.474Z,29.58
2023-03-31T23:56:53.518Z,32.40
2023-03-31T23:59:20.502Z,32.10
